sensor_id;sensor_type;location;lat;lon;timestamp;P1;durP1;ratioP1;P2;durP2;ratioP2
69419;SDS011;56612;52.030;113.524;2022-09-09T00:02:29;23.83;;;8.90;;
69419;SDS011;56612;52.030;113.524;2022-09-09T00:05:36;22.73;;;8.23;;
69419;SDS011;56612;52.030;113.524;2022-09-09T00:12:38;24.57;;;8.70;;
69419;SDS011;56612;52.030;113.524;2022-09-09T00:16:11;23.77;;;8.97;;
69419;SDS011;56612;52.030;113.524;2022-09-09T00:29:54;30.67;;;9.60;;
69419;SDS011;56612;52.030;113.524;2022-09-09T00:33:03;20.50;;;8.77;;
69419;SDS011;56612;52.030;113.524;2022-09-09T00:36:18;23.52;;;8.65;;
69419;SDS011;56612;52.030;113.524;2022-09-09T00:39:34;30.27;;;9.75;;
69419;SDS011;56612;52.030;113.524;2022-09-09T00:42:42;26.67;;;9.68;;
69419;SDS011;56612;52.030;113.524;2022-09-09T00:45:57;29.83;;;10.27;;
69419;SDS011;56612;52.030;113.524;2022-09-09T00:56:18;33.42;;;9.43;;
69419;SDS011;56612;52.030;113.524;2022-09-09T01:02:56;23.33;;;8.80;;
69419;SDS011;56612;52.030;113.524;2022-09-09T01:06:20;28.37;;;8.33;;
69419;SDS011;56612;52.030;113.524;2022-09-09T01:09:39;29.58;;;9.68;;
69419;SDS011;56612;52.030;113.524;2022-09-09T01:12:58;27.45;;;10.60;;
69419;SDS011;56612;52.030;113.524;2022-09-09T01:16:08;22.85;;;9.25;;
69419;SDS011;56612;52.030;113.524;2022-09-09T01:19:18;25.30;;;9.80;;
69419;SDS011;56612;52.030;113.524;2022-09-09T01:22:35;24.53;;;9.47;;
69419;SDS011;56612;52.030;113.524;2022-09-09T01:28:55;20.27;;;9.68;;
69419;SDS011;56612;52.030;113.524;2022-09-09T01:35:50;21.70;;;11.07;;
69419;SDS011;56612;52.030;113.524;2022-09-09T01:39:03;23.87;;;11.07;;
69419;SDS011;56612;52.030;113.524;2022-09-09T01:42:09;20.63;;;9.00;;
69419;SDS011;56612;52.030;113.524;2022-09-09T01:45:16;20.40;;;9.07;;
69419;SDS011;56612;52.030;113.524;2022-09-09T01:48:21;22.13;;;9.02;;
69419;SDS011;56612;52.030;113.524;2022-09-09T01:51:36;35.97;;;9.70;;
69419;SDS011;56612;52.030;113.524;2022-09-09T01:54:45;27.80;;;9.93;;
69419;SDS011;56612;52.030;113.524;2022-09-09T01:58:11;19.75;;;9.00;;
69419;SDS011;56612;52.030;113.524;2022-09-09T02:04:53;26.55;;;10.20;;
69419;SDS011;56612;52.030;113.524;2022-09-09T02:08:08;25.93;;;11.27;;
69419;SDS011;56612;52.030;113.524;2022-09-09T02:11:37;33.47;;;11.30;;
69419;SDS011;56612;52.030;113.524;2022-09-09T02:14:54;26.52;;;11.10;;
69419;SDS011;56612;52.030;113.524;2022-09-09T02:18:08;22.80;;;10.95;;
69419;SDS011;56612;52.030;113.524;2022-09-09T02:21:17;26.73;;;12.52;;
69419;SDS011;56612;52.030;113.524;2022-09-09T02:24:21;23.53;;;10.83;;
69419;SDS011;56612;52.030;113.524;2022-09-09T02:27:35;30.77;;;13.63;;
69419;SDS011;56612;52.030;113.524;2022-09-09T02:30:40;30.58;;;14.20;;
69419;SDS011;56612;52.030;113.524;2022-09-09T02:33:48;20.77;;;10.60;;
69419;SDS011;56612;52.030;113.524;2022-09-09T02:37:01;21.90;;;10.10;;
69419;SDS011;56612;52.030;113.524;2022-09-09T02:40:11;23.50;;;10.33;;
69419;SDS011;56612;52.030;113.524;2022-09-09T02:43:23;21.63;;;9.67;;
69419;SDS011;56612;52.030;113.524;2022-09-09T02:53:24;20.17;;;10.50;;
69419;SDS011;56612;52.030;113.524;2022-09-09T02:56:42;20.40;;;9.23;;
69419;SDS011;56612;52.030;113.524;2022-09-09T02:59:56;27.73;;;11.20;;
69419;SDS011;56612;52.030;113.524;2022-09-09T03:03:07;20.63;;;10.38;;
69419;SDS011;56612;52.030;113.524;2022-09-09T03:06:14;21.17;;;10.10;;
69419;SDS011;56612;52.030;113.524;2022-09-09T03:09:24;39.42;;;13.93;;
69419;SDS011;56612;52.030;113.524;2022-09-09T03:12:29;24.93;;;10.17;;
69419;SDS011;56612;52.030;113.524;2022-09-09T03:15:32;21.57;;;9.40;;
69419;SDS011;56612;52.030;113.524;2022-09-09T03:18:36;16.83;;;8.77;;
69419;SDS011;56612;52.030;113.524;2022-09-09T03:21:39;24.05;;;9.38;;
69419;SDS011;56612;52.030;113.524;2022-09-09T03:24:43;21.15;;;9.48;;
69419;SDS011;56612;52.030;113.524;2022-09-09T03:27:47;22.73;;;9.90;;
69419;SDS011;56612;52.030;113.524;2022-09-09T03:30:52;20.67;;;9.13;;
69419;SDS011;56612;52.030;113.524;2022-09-09T03:34:06;14.43;;;8.93;;
69419;SDS011;56612;52.030;113.524;2022-09-09T03:37:10;21.23;;;9.23;;
69419;SDS011;56612;52.030;113.524;2022-09-09T03:40:15;16.63;;;8.90;;
69419;SDS011;56612;52.030;113.524;2022-09-09T03:43:20;21.07;;;9.00;;
69419;SDS011;56612;52.030;113.524;2022-09-09T03:46:27;19.93;;;8.67;;
69419;SDS011;56612;52.030;113.524;2022-09-09T03:49:30;29.90;;;12.25;;
69419;SDS011;56612;52.030;113.524;2022-09-09T03:52:35;21.35;;;9.93;;
69419;SDS011;56612;52.030;113.524;2022-09-09T03:55:51;21.00;;;9.80;;
69419;SDS011;56612;52.030;113.524;2022-09-09T03:58:59;27.77;;;11.17;;
69419;SDS011;56612;52.030;113.524;2022-09-09T04:02:03;26.67;;;12.30;;
69419;SDS011;56612;52.030;113.524;2022-09-09T04:05:07;20.05;;;9.93;;
69419;SDS011;56612;52.030;113.524;2022-09-09T04:08:14;19.85;;;9.07;;
69419;SDS011;56612;52.030;113.524;2022-09-09T04:11:18;24.80;;;9.82;;
69419;SDS011;56612;52.030;113.524;2022-09-09T04:14:25;26.57;;;13.10;;
69419;SDS011;56612;52.030;113.524;2022-09-09T04:17:32;22.70;;;8.83;;
69419;SDS011;56612;52.030;113.524;2022-09-09T04:20:36;24.75;;;10.30;;
69419;SDS011;56612;52.030;113.524;2022-09-09T04:23:39;23.52;;;10.55;;
69419;SDS011;56612;52.030;113.524;2022-09-09T04:26:43;22.58;;;9.50;;
69419;SDS011;56612;52.030;113.524;2022-09-09T04:29:48;22.77;;;8.70;;
69419;SDS011;56612;52.030;113.524;2022-09-09T04:32:52;20.50;;;8.60;;
69419;SDS011;56612;52.030;113.524;2022-09-09T04:35:55;20.92;;;7.70;;
69419;SDS011;56612;52.030;113.524;2022-09-09T04:39:00;18.15;;;8.00;;
69419;SDS011;56612;52.030;113.524;2022-09-09T04:42:04;18.15;;;7.88;;
69419;SDS011;56612;52.030;113.524;2022-09-09T04:45:08;16.63;;;6.93;;
69419;SDS011;56612;52.030;113.524;2022-09-09T04:48:14;14.67;;;6.60;;
69419;SDS011;56612;52.030;113.524;2022-09-09T04:51:17;15.85;;;6.07;;
69419;SDS011;56612;52.030;113.524;2022-09-09T04:54:23;13.80;;;6.60;;
69419;SDS011;56612;52.030;113.524;2022-09-09T04:57:27;17.08;;;7.20;;
69419;SDS011;56612;52.030;113.524;2022-09-09T05:00:31;19.43;;;7.40;;
69419;SDS011;56612;52.030;113.524;2022-09-09T05:03:41;16.47;;;6.20;;
69419;SDS011;56612;52.030;113.524;2022-09-09T05:06:46;12.15;;;5.25;;
69419;SDS011;56612;52.030;113.524;2022-09-09T05:09:51;11.90;;;6.00;;
69419;SDS011;56612;52.030;113.524;2022-09-09T05:12:55;10.55;;;5.97;;
69419;SDS011;56612;52.030;113.524;2022-09-09T05:16:01;13.80;;;5.67;;
69419;SDS011;56612;52.030;113.524;2022-09-09T05:19:07;14.03;;;5.70;;
69419;SDS011;56612;52.030;113.524;2022-09-09T05:22:18;14.00;;;6.43;;
69419;SDS011;56612;52.030;113.524;2022-09-09T05:25:24;12.13;;;5.82;;
69419;SDS011;56612;52.030;113.524;2022-09-09T05:28:33;12.65;;;6.18;;
69419;SDS011;56612;52.030;113.524;2022-09-09T05:31:38;15.20;;;6.50;;
69419;SDS011;56612;52.030;113.524;2022-09-09T05:34:46;16.43;;;6.47;;
69419;SDS011;56612;52.030;113.524;2022-09-09T05:37:51;11.73;;;5.65;;
69419;SDS011;56612;52.030;113.524;2022-09-09T05:40:56;11.57;;;6.28;;
69419;SDS011;56612;52.030;113.524;2022-09-09T05:43:59;16.30;;;7.85;;
69419;SDS011;56612;52.030;113.524;2022-09-09T05:47:08;10.53;;;6.07;;
69419;SDS011;56612;52.030;113.524;2022-09-09T05:50:12;11.10;;;5.90;;
69419;SDS011;56612;52.030;113.524;2022-09-09T05:53:17;14.38;;;5.53;;
69419;SDS011;56612;52.030;113.524;2022-09-09T05:56:23;9.52;;;5.13;;
69419;SDS011;56612;52.030;113.524;2022-09-09T05:59:30;10.95;;;5.45;;
69419;SDS011;56612;52.030;113.524;2022-09-09T06:02:36;8.00;;;5.10;;
69419;SDS011;56612;52.030;113.524;2022-09-09T06:05:44;15.23;;;8.63;;
69419;SDS011;56612;52.030;113.524;2022-09-09T06:08:50;10.18;;;5.80;;
69419;SDS011;56612;52.030;113.524;2022-09-09T06:11:55;10.98;;;7.38;;
69419;SDS011;56612;52.030;113.524;2022-09-09T06:15:01;8.50;;;5.72;;
69419;SDS011;56612;52.030;113.524;2022-09-09T06:18:05;7.90;;;5.83;;
69419;SDS011;56612;52.030;113.524;2022-09-09T06:21:11;8.87;;;5.40;;
69419;SDS011;56612;52.030;113.524;2022-09-09T06:24:20;9.45;;;5.72;;
69419;SDS011;56612;52.030;113.524;2022-09-09T06:27:26;9.38;;;5.90;;
69419;SDS011;56612;52.030;113.524;2022-09-09T06:30:30;8.48;;;5.80;;
69419;SDS011;56612;52.030;113.524;2022-09-09T06:33:35;10.20;;;6.00;;
69419;SDS011;56612;52.030;113.524;2022-09-09T06:36:42;8.80;;;6.23;;
69419;SDS011;56612;52.030;113.524;2022-09-09T06:39:47;16.65;;;7.80;;
69419;SDS011;56612;52.030;113.524;2022-09-09T06:42:51;9.40;;;5.80;;
69419;SDS011;56612;52.030;113.524;2022-09-09T06:46:10;10.18;;;6.10;;
69419;SDS011;56612;52.030;113.524;2022-09-09T06:49:19;13.97;;;6.00;;
69419;SDS011;56612;52.030;113.524;2022-09-09T06:52:23;8.27;;;5.60;;
69419;SDS011;56612;52.030;113.524;2022-09-09T06:55:28;10.57;;;5.80;;
69419;SDS011;56612;52.030;113.524;2022-09-09T06:58:32;14.60;;;5.97;;
69419;SDS011;56612;52.030;113.524;2022-09-09T07:01:38;15.70;;;7.05;;
69419;SDS011;56612;52.030;113.524;2022-09-09T07:04:47;9.77;;;4.60;;
69419;SDS011;56612;52.030;113.524;2022-09-09T07:07:53;10.90;;;5.33;;
69419;SDS011;56612;52.030;113.524;2022-09-09T07:11:04;14.77;;;5.82;;
69419;SDS011;56612;52.030;113.524;2022-09-09T07:14:15;9.25;;;5.63;;
69419;SDS011;56612;52.030;113.524;2022-09-09T07:17:22;10.98;;;5.20;;
69419;SDS011;56612;52.030;113.524;2022-09-09T07:20:26;11.07;;;5.23;;
69419;SDS011;56612;52.030;113.524;2022-09-09T07:23:30;16.37;;;6.70;;
69419;SDS011;56612;52.030;113.524;2022-09-09T07:26:38;16.15;;;7.53;;
69419;SDS011;56612;52.030;113.524;2022-09-09T07:29:43;7.25;;;4.82;;
69419;SDS011;56612;52.030;113.524;2022-09-09T07:32:48;8.55;;;5.15;;
69419;SDS011;56612;52.030;113.524;2022-09-09T07:36:01;9.80;;;5.50;;
69419;SDS011;56612;52.030;113.524;2022-09-09T07:39:12;10.27;;;5.17;;
69419;SDS011;56612;52.030;113.524;2022-09-09T07:42:22;10.75;;;5.55;;
69419;SDS011;56612;52.030;113.524;2022-09-09T07:45:27;8.85;;;5.38;;
69419;SDS011;56612;52.030;113.524;2022-09-09T07:48:31;10.10;;;5.03;;
69419;SDS011;56612;52.030;113.524;2022-09-09T07:51:37;13.00;;;5.60;;
69419;SDS011;56612;52.030;113.524;2022-09-09T07:54:43;13.30;;;6.83;;
69419;SDS011;56612;52.030;113.524;2022-09-09T07:57:48;13.02;;;5.78;;
69419;SDS011;56612;52.030;113.524;2022-09-09T08:00:52;9.80;;;4.80;;
69419;SDS011;56612;52.030;113.524;2022-09-09T08:04:07;7.80;;;4.65;;
69419;SDS011;56612;52.030;113.524;2022-09-09T08:07:12;9.87;;;4.53;;
69419;SDS011;56612;52.030;113.524;2022-09-09T08:10:22;7.07;;;4.77;;
69419;SDS011;56612;52.030;113.524;2022-09-09T08:13:29;7.07;;;4.80;;
69419;SDS011;56612;52.030;113.524;2022-09-09T08:16:34;11.32;;;4.07;;
69419;SDS011;56612;52.030;113.524;2022-09-09T08:19:40;7.00;;;4.95;;
69419;SDS011;56612;52.030;113.524;2022-09-09T08:22:48;8.63;;;4.50;;
69419;SDS011;56612;52.030;113.524;2022-09-09T08:25:53;10.10;;;4.57;;
69419;SDS011;56612;52.030;113.524;2022-09-09T08:28:57;9.38;;;5.43;;
69419;SDS011;56612;52.030;113.524;2022-09-09T08:32:03;11.85;;;4.68;;
69419;SDS011;56612;52.030;113.524;2022-09-09T08:35:08;9.13;;;4.18;;
69419;SDS011;56612;52.030;113.524;2022-09-09T08:38:12;10.73;;;4.97;;
69419;SDS011;56612;52.030;113.524;2022-09-09T08:51:33;10.45;;;5.53;;
69419;SDS011;56612;52.030;113.524;2022-09-09T08:54:38;14.10;;;6.63;;
69419;SDS011;56612;52.030;113.524;2022-09-09T08:57:56;15.17;;;8.03;;
69419;SDS011;56612;52.030;113.524;2022-09-09T09:04:45;26.15;;;8.85;;
69419;SDS011;56612;52.030;113.524;2022-09-09T09:11:10;8.07;;;5.43;;
69419;SDS011;56612;52.030;113.524;2022-09-09T09:14:19;12.13;;;6.00;;
69419;SDS011;56612;52.030;113.524;2022-09-09T09:17:29;17.40;;;6.80;;
69419;SDS011;56612;52.030;113.524;2022-09-09T09:20:46;12.18;;;6.38;;
69419;SDS011;56612;52.030;113.524;2022-09-09T09:27:15;17.10;;;8.63;;
69419;SDS011;56612;52.030;113.524;2022-09-09T09:30:29;32.87;;;9.67;;
69419;SDS011;56612;52.030;113.524;2022-09-09T09:36:46;27.88;;;10.50;;
69419;SDS011;56612;52.030;113.524;2022-09-09T09:43:19;31.33;;;10.97;;
69419;SDS011;56612;52.030;113.524;2022-09-09T09:46:26;18.83;;;11.03;;
69419;SDS011;56612;52.030;113.524;2022-09-09T09:49:50;26.55;;;11.00;;
69419;SDS011;56612;52.030;113.524;2022-09-09T09:52:57;27.95;;;10.18;;
69419;SDS011;56612;52.030;113.524;2022-09-09T09:56:07;30.65;;;11.98;;
69419;SDS011;56612;52.030;113.524;2022-09-09T09:59:20;28.33;;;13.33;;
69419;SDS011;56612;52.030;113.524;2022-09-09T10:02:48;41.67;;;25.70;;
69419;SDS011;56612;52.030;113.524;2022-09-09T10:05:58;34.95;;;11.82;;
69419;SDS011;56612;52.030;113.524;2022-09-09T10:09:03;25.52;;;10.18;;
69419;SDS011;56612;52.030;113.524;2022-09-09T10:19:42;14.97;;;8.33;;
69419;SDS011;56612;52.030;113.524;2022-09-09T10:23:26;29.00;;;11.35;;
69419;SDS011;56612;52.030;113.524;2022-09-09T10:33:30;27.87;;;10.20;;
69419;SDS011;56612;52.030;113.524;2022-09-09T10:36:35;37.30;;;11.40;;
69419;SDS011;56612;52.030;113.524;2022-09-09T10:39:46;36.58;;;12.85;;
69419;SDS011;56612;52.030;113.524;2022-09-09T10:42:51;45.67;;;15.02;;
69419;SDS011;56612;52.030;113.524;2022-09-09T10:56:04;19.77;;;8.05;;
69419;SDS011;56612;52.030;113.524;2022-09-09T10:59:31;29.02;;;9.43;;
69419;SDS011;56612;52.030;113.524;2022-09-09T11:02:42;31.90;;;10.00;;
69419;SDS011;56612;52.030;113.524;2022-09-09T11:09:28;33.10;;;9.77;;
69419;SDS011;56612;52.030;113.524;2022-09-09T11:12:39;37.47;;;13.18;;
69419;SDS011;56612;52.030;113.524;2022-09-09T11:15:49;33.85;;;9.95;;
69419;SDS011;56612;52.030;113.524;2022-09-09T11:19:04;35.17;;;14.88;;
69419;SDS011;56612;52.030;113.524;2022-09-09T11:26:02;17.73;;;7.00;;
69419;SDS011;56612;52.030;113.524;2022-09-09T11:29:16;37.13;;;9.80;;
69419;SDS011;56612;52.030;113.524;2022-09-09T11:42:43;32.53;;;9.67;;
69419;SDS011;56612;52.030;113.524;2022-09-09T11:45:53;37.08;;;10.02;;
69419;SDS011;56612;52.030;113.524;2022-09-09T11:49:04;26.42;;;10.57;;
69419;SDS011;56612;52.030;113.524;2022-09-09T11:52:22;29.13;;;9.77;;
69419;SDS011;56612;52.030;113.524;2022-09-09T11:55:46;26.03;;;8.90;;
69419;SDS011;56612;52.030;113.524;2022-09-09T11:58:59;21.80;;;8.87;;
69419;SDS011;56612;52.030;113.524;2022-09-09T12:02:23;28.77;;;11.45;;
69419;SDS011;56612;52.030;113.524;2022-09-09T12:05:50;37.70;;;12.00;;
69419;SDS011;56612;52.030;113.524;2022-09-09T12:08:56;29.98;;;11.93;;
69419;SDS011;56612;52.030;113.524;2022-09-09T12:12:06;33.83;;;11.33;;
69419;SDS011;56612;52.030;113.524;2022-09-09T12:18:15;29.13;;;11.45;;
69419;SDS011;56612;52.030;113.524;2022-09-09T12:21:40;25.45;;;11.38;;
69419;SDS011;56612;52.030;113.524;2022-09-09T12:24:56;47.22;;;13.52;;
69419;SDS011;56612;52.030;113.524;2022-09-09T12:28:22;40.60;;;12.23;;
69419;SDS011;56612;52.030;113.524;2022-09-09T12:31:54;38.07;;;13.13;;
69419;SDS011;56612;52.030;113.524;2022-09-09T12:35:23;44.90;;;12.20;;
69419;SDS011;56612;52.030;113.524;2022-09-09T12:38:35;36.75;;;12.35;;
69419;SDS011;56612;52.030;113.524;2022-09-09T12:41:41;37.47;;;11.88;;
69419;SDS011;56612;52.030;113.524;2022-09-09T12:45:03;35.03;;;12.53;;
69419;SDS011;56612;52.030;113.524;2022-09-09T12:48:19;37.53;;;13.93;;
69419;SDS011;56612;52.030;113.524;2022-09-09T12:51:25;33.15;;;12.77;;
69419;SDS011;56612;52.030;113.524;2022-09-09T12:54:33;34.08;;;12.18;;
69419;SDS011;56612;52.030;113.524;2022-09-09T12:57:39;29.45;;;12.35;;
69419;SDS011;56612;52.030;113.524;2022-09-09T13:00:50;35.70;;;12.40;;
69419;SDS011;56612;52.030;113.524;2022-09-09T13:03:55;31.80;;;12.77;;
69419;SDS011;56612;52.030;113.524;2022-09-09T13:07:07;29.45;;;12.95;;
69419;SDS011;56612;52.030;113.524;2022-09-09T13:10:19;24.00;;;10.40;;
69419;SDS011;56612;52.030;113.524;2022-09-09T13:13:39;23.98;;;10.57;;
69419;SDS011;56612;52.030;113.524;2022-09-09T13:16:53;26.80;;;11.43;;
69419;SDS011;56612;52.030;113.524;2022-09-09T13:20:01;26.40;;;12.10;;
69419;SDS011;56612;52.030;113.524;2022-09-09T13:23:05;34.72;;;13.95;;
69419;SDS011;56612;52.030;113.524;2022-09-09T13:26:22;31.63;;;11.93;;
69419;SDS011;56612;52.030;113.524;2022-09-09T13:29:29;32.85;;;11.70;;
69419;SDS011;56612;52.030;113.524;2022-09-09T13:32:35;27.80;;;12.43;;
69419;SDS011;56612;52.030;113.524;2022-09-09T13:36:12;32.40;;;13.63;;
69419;SDS011;56612;52.030;113.524;2022-09-09T13:39:13;35.42;;;14.25;;
69419;SDS011;56612;52.030;113.524;2022-09-09T13:42:23;41.00;;;13.57;;
69419;SDS011;56612;52.030;113.524;2022-09-09T13:45:32;42.70;;;17.85;;
69419;SDS011;56612;52.030;113.524;2022-09-09T13:48:37;33.43;;;17.03;;
69419;SDS011;56612;52.030;113.524;2022-09-09T13:51:45;40.43;;;20.23;;
69419;SDS011;56612;52.030;113.524;2022-09-09T13:54:50;41.40;;;19.58;;
69419;SDS011;56612;52.030;113.524;2022-09-09T13:57:57;36.15;;;18.00;;
69419;SDS011;56612;52.030;113.524;2022-09-09T14:01:06;30.10;;;14.95;;
69419;SDS011;56612;52.030;113.524;2022-09-09T14:04:10;41.60;;;13.53;;
69419;SDS011;56612;52.030;113.524;2022-09-09T14:07:14;37.43;;;14.57;;
69419;SDS011;56612;52.030;113.524;2022-09-09T14:10:19;33.05;;;15.10;;
69419;SDS011;56612;52.030;113.524;2022-09-09T14:13:24;36.30;;;15.63;;
69419;SDS011;56612;52.030;113.524;2022-09-09T14:16:29;39.70;;;15.25;;
69419;SDS011;56612;52.030;113.524;2022-09-09T14:19:32;34.70;;;14.30;;
69419;SDS011;56612;52.030;113.524;2022-09-09T14:22:36;26.40;;;8.67;;
69419;SDS011;56612;52.030;113.524;2022-09-09T14:25:42;29.98;;;10.60;;
69419;SDS011;56612;52.030;113.524;2022-09-09T14:28:46;23.13;;;9.80;;
69419;SDS011;56612;52.030;113.524;2022-09-09T14:31:57;32.50;;;11.68;;
69419;SDS011;56612;52.030;113.524;2022-09-09T14:35:03;32.03;;;10.80;;
69419;SDS011;56612;52.030;113.524;2022-09-09T14:38:08;30.73;;;13.23;;
69419;SDS011;56612;52.030;113.524;2022-09-09T14:41:17;23.48;;;11.27;;
69419;SDS011;56612;52.030;113.524;2022-09-09T14:44:23;22.98;;;10.93;;
69419;SDS011;56612;52.030;113.524;2022-09-09T14:47:26;29.13;;;11.18;;
69419;SDS011;56612;52.030;113.524;2022-09-09T14:50:30;26.07;;;11.87;;
69419;SDS011;56612;52.030;113.524;2022-09-09T14:53:33;31.97;;;13.10;;
69419;SDS011;56612;52.030;113.524;2022-09-09T14:56:37;27.73;;;11.57;;
69419;SDS011;56612;52.030;113.524;2022-09-09T14:59:41;24.38;;;11.43;;
69419;SDS011;56612;52.030;113.524;2022-09-09T15:02:45;20.48;;;9.40;;
69419;SDS011;56612;52.030;113.524;2022-09-09T15:05:48;25.67;;;9.90;;
69419;SDS011;56612;52.030;113.524;2022-09-09T15:08:53;23.30;;;10.40;;
69419;SDS011;56612;52.030;113.524;2022-09-09T15:11:57;23.80;;;10.93;;
69419;SDS011;56612;52.030;113.524;2022-09-09T15:15:01;31.40;;;9.75;;
69419;SDS011;56612;52.030;113.524;2022-09-09T15:18:05;20.98;;;9.95;;
69419;SDS011;56612;52.030;113.524;2022-09-09T15:21:12;22.93;;;9.27;;
69419;SDS011;56612;52.030;113.524;2022-09-09T15:24:22;23.53;;;9.63;;
69419;SDS011;56612;52.030;113.524;2022-09-09T15:27:26;23.30;;;10.18;;
69419;SDS011;56612;52.030;113.524;2022-09-09T15:30:30;22.88;;;10.88;;
69419;SDS011;56612;52.030;113.524;2022-09-09T15:33:34;24.83;;;9.73;;
69419;SDS011;56612;52.030;113.524;2022-09-09T15:36:40;20.90;;;9.30;;
69419;SDS011;56612;52.030;113.524;2022-09-09T15:39:49;28.27;;;10.80;;
69419;SDS011;56612;52.030;113.524;2022-09-09T15:42:53;24.10;;;10.90;;
69419;SDS011;56612;52.030;113.524;2022-09-09T15:45:59;22.95;;;10.45;;
69419;SDS011;56612;52.030;113.524;2022-09-09T15:49:19;19.60;;;9.85;;
69419;SDS011;56612;52.030;113.524;2022-09-09T15:52:30;20.30;;;11.90;;
69419;SDS011;56612;52.030;113.524;2022-09-09T15:55:33;26.33;;;11.43;;
69419;SDS011;56612;52.030;113.524;2022-09-09T15:58:37;25.25;;;11.32;;
69419;SDS011;56612;52.030;113.524;2022-09-09T16:01:40;28.45;;;12.00;;
69419;SDS011;56612;52.030;113.524;2022-09-09T16:04:46;20.40;;;11.15;;
69419;SDS011;56612;52.030;113.524;2022-09-09T16:07:50;22.77;;;10.53;;
69419;SDS011;56612;52.030;113.524;2022-09-09T16:10:55;24.67;;;12.00;;
69419;SDS011;56612;52.030;113.524;2022-09-09T16:13:59;23.80;;;10.02;;
69419;SDS011;56612;52.030;113.524;2022-09-09T16:17:04;24.35;;;10.93;;
69419;SDS011;56612;52.030;113.524;2022-09-09T16:20:09;27.20;;;11.27;;
69419;SDS011;56612;52.030;113.524;2022-09-09T16:23:15;26.77;;;11.20;;
69419;SDS011;56612;52.030;113.524;2022-09-09T16:26:18;25.43;;;12.00;;
69419;SDS011;56612;52.030;113.524;2022-09-09T16:29:23;23.65;;;11.27;;
69419;SDS011;56612;52.030;113.524;2022-09-09T16:32:28;26.60;;;10.80;;
69419;SDS011;56612;52.030;113.524;2022-09-09T16:35:35;24.55;;;11.25;;
69419;SDS011;56612;52.030;113.524;2022-09-09T16:38:40;29.40;;;11.23;;
69419;SDS011;56612;52.030;113.524;2022-09-09T16:41:46;26.73;;;11.70;;
69419;SDS011;56612;52.030;113.524;2022-09-09T16:44:51;22.63;;;12.35;;
69419;SDS011;56612;52.030;113.524;2022-09-09T16:47:55;24.65;;;11.07;;
69419;SDS011;56612;52.030;113.524;2022-09-09T16:51:05;27.30;;;11.48;;
69419;SDS011;56612;52.030;113.524;2022-09-09T16:54:13;26.47;;;11.13;;
69419;SDS011;56612;52.030;113.524;2022-09-09T16:57:18;29.37;;;12.27;;
69419;SDS011;56612;52.030;113.524;2022-09-09T17:00:22;23.80;;;11.23;;
69419;SDS011;56612;52.030;113.524;2022-09-09T17:03:26;21.73;;;11.82;;
69419;SDS011;56612;52.030;113.524;2022-09-09T17:06:30;23.17;;;11.80;;
69419;SDS011;56612;52.030;113.524;2022-09-09T17:09:37;25.17;;;11.40;;
69419;SDS011;56612;52.030;113.524;2022-09-09T17:12:41;27.07;;;13.50;;
69419;SDS011;56612;52.030;113.524;2022-09-09T17:15:45;22.83;;;11.85;;
69419;SDS011;56612;52.030;113.524;2022-09-09T17:18:50;23.13;;;11.38;;
69419;SDS011;56612;52.030;113.524;2022-09-09T17:21:54;26.92;;;11.63;;
69419;SDS011;56612;52.030;113.524;2022-09-09T17:25:19;29.53;;;12.43;;
69419;SDS011;56612;52.030;113.524;2022-09-09T17:28:26;24.10;;;11.70;;
69419;SDS011;56612;52.030;113.524;2022-09-09T17:31:34;28.35;;;12.23;;
69419;SDS011;56612;52.030;113.524;2022-09-09T17:34:38;26.13;;;11.40;;
69419;SDS011;56612;52.030;113.524;2022-09-09T17:37:42;23.30;;;11.77;;
69419;SDS011;56612;52.030;113.524;2022-09-09T17:40:46;28.63;;;11.50;;
69419;SDS011;56612;52.030;113.524;2022-09-09T17:43:51;24.47;;;11.70;;
69419;SDS011;56612;52.030;113.524;2022-09-09T17:46:54;50.13;;;12.57;;
69419;SDS011;56612;52.030;113.524;2022-09-09T17:49:59;30.65;;;12.32;;
69419;SDS011;56612;52.030;113.524;2022-09-09T17:53:03;34.90;;;12.48;;
69419;SDS011;56612;52.030;113.524;2022-09-09T17:56:08;29.30;;;11.80;;
69419;SDS011;56612;52.030;113.524;2022-09-09T17:59:13;28.43;;;12.50;;
69419;SDS011;56612;52.030;113.524;2022-09-09T18:02:18;24.73;;;11.95;;
69419;SDS011;56612;52.030;113.524;2022-09-09T18:05:22;25.95;;;12.65;;
69419;SDS011;56612;52.030;113.524;2022-09-09T18:08:26;23.80;;;11.63;;
69419;SDS011;56612;52.030;113.524;2022-09-09T18:11:37;23.03;;;11.97;;
69419;SDS011;56612;52.030;113.524;2022-09-09T18:14:44;21.40;;;11.30;;
69419;SDS011;56612;52.030;113.524;2022-09-09T18:17:50;20.50;;;11.80;;
69419;SDS011;56612;52.030;113.524;2022-09-09T18:21:00;25.23;;;11.75;;
69419;SDS011;56612;52.030;113.524;2022-09-09T18:24:09;23.90;;;11.70;;
69419;SDS011;56612;52.030;113.524;2022-09-09T18:27:15;21.80;;;11.87;;
69419;SDS011;56612;52.030;113.524;2022-09-09T18:30:18;26.43;;;11.60;;
69419;SDS011;56612;52.030;113.524;2022-09-09T18:33:22;20.95;;;10.90;;
69419;SDS011;56612;52.030;113.524;2022-09-09T18:36:30;22.83;;;10.52;;
69419;SDS011;56612;52.030;113.524;2022-09-09T18:39:36;21.67;;;11.77;;
69419;SDS011;56612;52.030;113.524;2022-09-09T18:42:40;19.13;;;10.97;;
69419;SDS011;56612;52.030;113.524;2022-09-09T18:45:44;19.40;;;11.07;;
69419;SDS011;56612;52.030;113.524;2022-09-09T18:48:49;20.30;;;10.80;;
69419;SDS011;56612;52.030;113.524;2022-09-09T18:51:53;21.13;;;10.43;;
69419;SDS011;56612;52.030;113.524;2022-09-09T18:54:58;19.48;;;10.75;;
69419;SDS011;56612;52.030;113.524;2022-09-09T18:58:02;20.10;;;10.43;;
69419;SDS011;56612;52.030;113.524;2022-09-09T19:01:10;21.73;;;10.47;;
69419;SDS011;56612;52.030;113.524;2022-09-09T19:04:16;21.33;;;10.88;;
69419;SDS011;56612;52.030;113.524;2022-09-09T19:07:21;21.05;;;10.48;;
69419;SDS011;56612;52.030;113.524;2022-09-09T19:10:26;18.42;;;10.43;;
69419;SDS011;56612;52.030;113.524;2022-09-09T19:13:30;17.73;;;11.30;;
69419;SDS011;56612;52.030;113.524;2022-09-09T19:16:34;21.87;;;10.30;;
69419;SDS011;56612;52.030;113.524;2022-09-09T19:19:39;20.45;;;11.25;;
69419;SDS011;56612;52.030;113.524;2022-09-09T19:22:44;19.13;;;10.48;;
69419;SDS011;56612;52.030;113.524;2022-09-09T19:25:48;21.20;;;10.57;;
69419;SDS011;56612;52.030;113.524;2022-09-09T19:28:52;21.27;;;10.53;;
69419;SDS011;56612;52.030;113.524;2022-09-09T19:31:57;17.73;;;9.93;;
69419;SDS011;56612;52.030;113.524;2022-09-09T19:35:22;17.42;;;10.23;;
69419;SDS011;56612;52.030;113.524;2022-09-09T19:38:26;19.17;;;10.10;;
69419;SDS011;56612;52.030;113.524;2022-09-09T19:41:30;17.88;;;10.70;;
69419;SDS011;56612;52.030;113.524;2022-09-09T19:44:34;19.47;;;10.13;;
69419;SDS011;56612;52.030;113.524;2022-09-09T19:47:38;20.10;;;10.50;;
69419;SDS011;56612;52.030;113.524;2022-09-09T19:50:42;22.02;;;10.90;;
69419;SDS011;56612;52.030;113.524;2022-09-09T19:53:47;21.55;;;11.23;;